Time;durP1;ratioP1;P1;durP2;ratioP2;P2;SDS_P1;SDS_P2;PMS_P1;PMS_P2;Temp;Humidity;BMP_temperature;BMP_pressure;BME280_temperature;BME280_humidity;BME280_pressure;Samples;Min_cycle;Max_cycle;Signal;HPM_P1;HPM_P2
2021/12/31 00:00:08;;;;;;;;;5.75;4.00;;;;;;;;5031546;28;45593;-80
2021/12/31 00:02:34;;;;;;;;;4.25;4.25;;;;;;;;5026522;28;45789;-80
2021/12/31 00:04:59;;;;;;;;;8.25;4.00;;;;;;;;5028188;28;45652;-80
2021/12/31 00:07:24;;;;;;;;;5.00;4.00;;;;;;;;5025276;28;45668;-80
2021/12/31 00:09:49;;;;;;;;;6.75;5.00;;;;;;;;5024148;28;45880;-80
2021/12/31 00:12:15;;;;;;;;;7.50;5.00;;;;;;;;5031204;28;45523;-80
2021/12/31 00:14:40;;;;;;;;;4.33;3.33;;;;;;;;5027904;28;45497;-80
2021/12/31 00:17:05;;;;;;;;;3.33;3.00;;;;;;;;5028161;28;45551;-80
2021/12/31 00:19:33;;;;;;;;;3.75;3.75;;;;;;;;5027413;28;45529;-80
2021/12/31 00:22:03;;;;;;;;;7.75;4.00;;;;;;;;5028547;28;45556;-80
2021/12/31 00:24:28;;;;;;;;;5.50;4.00;;;;;;;;5027735;28;45699;-80
2021/12/31 00:26:53;;;;;;;;;5.00;3.00;;;;;;;;5026131;28;45406;-80
2021/12/31 00:29:19;;;;;;;;;4.00;4.00;;;;;;;;5026203;28;45377;-80
2021/12/31 00:31:44;;;;;;;;;7.00;5.00;;;;;;;;5026873;28;45708;-80
2021/12/31 00:34:09;;;;;;;;;4.00;4.00;;;;;;;;5028127;28;46158;-80
2021/12/31 00:36:47;;;;;;;;;5.75;5.50;;;;;;;;5024857;28;45793;-80
2021/12/31 00:39:13;;;;;;;;;8.00;4.00;;;;;;;;5026036;28;45795;-80
2021/12/31 00:41:39;;;;;;;;;7.25;4.25;;;;;;;;5025809;28;45797;-80
2021/12/31 00:44:04;;;;;;;;;5.75;5.75;;;;;;;;5028064;28;45420;-81
2021/12/31 00:46:30;;;;;;;;;5.75;4.00;;;;;;;;5026023;28;45455;-80
2021/12/31 00:48:57;;;;;;;;;8.25;4.50;;;;;;;;5027762;28;47205;-80
2021/12/31 00:51:23;;;;;;;;;3.75;3.75;;;;;;;;5024993;28;45904;-80
2021/12/31 00:53:48;;;;;;;;;6.67;4.00;;;;;;;;5031840;28;45600;-81
2021/12/31 00:56:13;;;;;;;;;4.00;4.00;;;;;;;;5028838;28;45523;-80
2021/12/31 00:58:38;;;;;;;;;4.75;4.50;;;;;;;;5024510;28;45375;-81
2021/12/31 01:01:04;;;;;;;;;6.00;6.00;;;;;;;;5025000;28;45796;-81
2021/12/31 01:03:29;;;;;;;;;6.50;4.75;;;;;;;;5028203;28;45348;-80
2021/12/31 01:05:54;;;;;;;;;7.00;4.33;;;;;;;;5028455;28;45768;-80
2021/12/31 01:08:20;;;;;;;;;4.00;4.00;;;;;;;;5026155;28;46502;-80
2021/12/31 01:10:45;;;;;;;;;4.00;4.00;;;;;;;;5027279;28;45613;-80
2021/12/31 01:13:16;;;;;;;;;4.50;4.00;;;;;;;;5027030;28;45457;-80
2021/12/31 01:15:44;;;;;;;;;5.25;4.50;;;;;;;;5027552;28;45557;-80
2021/12/31 01:20:39;;;;;;;;;5.00;3.50;;;;;;;;5021541;28;45740;-80
2021/12/31 01:23:05;;;;;;;;;3.50;2.00;;;;;;;;5023889;28;45570;-80
2021/12/31 01:25:30;;;;;;;;;3.25;3.25;;;;;;;;5027246;28;45532;-80
2021/12/31 01:27:55;;;;;;;;;4.25;3.75;;;;;;;;5027625;28;46309;-81
2021/12/31 01:30:21;;;;;;;;;4.00;4.00;;;;;;;;5028336;28;45401;-80
2021/12/31 01:32:46;;;;;;;;;3.50;3.50;;;;;;;;5028992;28;45522;-80
2021/12/31 01:35:12;;;;;;;;;2.50;2.50;;;;;;;;5031006;28;45334;-79
2021/12/31 01:37:37;;;;;;;;;5.25;3.25;;;;;;;;5030305;28;45652;-79
2021/12/31 01:40:03;;;;;;;;;2.75;2.75;;;;;;;;5032533;28;45481;-80
2021/12/31 01:42:32;;;;;;;;;5.00;4.50;;;;;;;;5029616;28;53908;-80
2021/12/31 01:45:02;;;;;;;;;3.00;3.00;;;;;;;;5027922;28;45477;-79
2021/12/31 01:47:36;;;;;;;;;3.50;3.00;;;;;;;;5030499;28;48236;-79
2021/12/31 01:50:06;;;;;;;;;3.00;3.00;;;;;;;;5029354;28;45952;-79
2021/12/31 01:52:32;;;;;;;;;3.00;3.00;;;;;;;;5031056;28;45770;-80
2021/12/31 01:54:58;;;;;;;;;3.00;3.00;;;;;;;;5028809;28;45692;-79
2021/12/31 01:57:23;;;;;;;;;2.75;2.75;;;;;;;;5032011;28;45596;-79
2021/12/31 01:59:48;;;;;;;;;2.50;2.50;;;;;;;;5031684;28;45484;-79
2021/12/31 02:02:15;;;;;;;;;7.50;3.00;;;;;;;;5030443;28;45549;-80
2021/12/31 02:04:40;;;;;;;;;4.50;3.00;;;;;;;;5026316;28;45387;-80
2021/12/31 02:07:06;;;;;;;;;3.75;3.00;;;;;;;;5023737;28;47314;-79
2021/12/31 02:09:36;;;;;;;;;3.00;3.00;;;;;;;;5030953;28;45606;-79
2021/12/31 02:12:02;;;;;;;;;4.00;2.25;;;;;;;;5033648;28;45449;-79
2021/12/31 02:14:27;;;;;;;;;3.50;3.50;;;;;;;;5029486;28;45480;-79
2021/12/31 02:16:52;;;;;;;;;4.00;4.00;;;;;;;;5027161;28;45602;-79
2021/12/31 02:19:26;;;;;;;;;4.33;2.67;;;;;;;;5027809;28;45407;-79
2021/12/31 02:21:52;;;;;;;;;4.25;2.75;;;;;;;;5024993;28;45716;-79
2021/12/31 02:24:18;;;;;;;;;3.00;3.00;;;;;;;;5029393;28;45409;-79
2021/12/31 02:26:44;;;;;;;;;2.50;2.50;;;;;;;;5030808;28;46450;-79
2021/12/31 02:29:09;;;;;;;;;2.00;2.00;;;;;;;;5028267;28;45941;-79
2021/12/31 02:31:34;;;;;;;;;3.00;3.00;;;;;;;;5031356;28;45552;-79
2021/12/31 02:33:59;;;;;;;;;2.33;2.33;;;;;;;;5030181;28;45538;-79
2021/12/31 02:36:26;;;;;;;;;2.50;1.75;;;;;;;;5031947;28;46625;-79
2021/12/31 02:38:52;;;;;;;;;3.00;2.00;;;;;;;;5031138;28;45541;-80
2021/12/31 02:41:17;;;;;;;;;5.00;3.50;;;;;;;;5028724;28;45478;-79
2021/12/31 02:43:43;;;;;;;;;2.00;2.00;;;;;;;;5028790;28;45837;-79
2021/12/31 02:46:09;;;;;;;;;3.00;1.75;;;;;;;;5028343;28;46183;-79
2021/12/31 02:48:34;;;;;;;;;3.25;2.50;;;;;;;;5031034;28;45336;-80
2021/12/31 02:51:00;;;;;;;;;1.33;1.33;;;;;;;;5030901;28;45482;-79
2021/12/31 02:53:46;;;;;;;;;4.25;4.25;;;;;;;;5028824;28;45561;-79
2021/12/31 02:56:12;;;;;;;;;3.00;2.00;;;;;;;;5028388;28;45604;-79
2021/12/31 02:58:38;;;;;;;;;3.00;3.00;;;;;;;;5029230;28;46016;-79
2021/12/31 03:01:04;;;;;;;;;3.25;3.25;;;;;;;;5030079;28;45855;-79
2021/12/31 03:03:30;;;;;;;;;3.00;3.00;;;;;;;;5030372;28;45565;-80
2021/12/31 03:05:56;;;;;;;;;2.75;2.50;;;;;;;;5031213;28;45518;-80
2021/12/31 03:08:27;;;;;;;;;5.00;3.33;;;;;;;;5023042;28;45684;-79
2021/12/31 03:10:53;;;;;;;;;2.75;2.75;;;;;;;;5029591;28;45625;-79
2021/12/31 03:13:18;;;;;;;;;2.25;2.25;;;;;;;;5027643;28;45589;-79
2021/12/31 03:15:44;;;;;;;;;4.25;2.75;;;;;;;;5030481;28;47150;-79
2021/12/31 03:18:10;;;;;;;;;4.00;2.75;;;;;;;;5029981;28;45512;-79
2021/12/31 03:20:41;;;;;;;;;5.00;4.00;;;;;;;;5022900;28;45551;-80
2021/12/31 03:23:07;;;;;;;;;6.00;3.25;;;;;;;;5029567;28;45652;-80
2021/12/31 03:25:32;;;;;;;;;3.00;3.00;;;;;;;;5027867;28;45482;-79
2021/12/31 03:27:58;;;;;;;;;4.00;3.50;;;;;;;;5028162;28;45427;-79
2021/12/31 03:30:23;;;;;;;;;2.25;1.50;;;;;;;;5031574;28;45471;-80
2021/12/31 03:32:48;;;;;;;;;3.00;3.00;;;;;;;;5030605;28;45416;-80
2021/12/31 03:35:13;;;;;;;;;4.00;4.00;;;;;;;;5027925;28;47426;-79
2021/12/31 03:37:39;;;;;;;;;5.00;4.67;;;;;;;;5028391;28;45535;-80
2021/12/31 03:40:04;;;;;;;;;6.33;4.67;;;;;;;;5030364;28;45639;-79
2021/12/31 03:42:30;;;;;;;;;4.00;4.00;;;;;;;;5026512;28;45538;-80
2021/12/31 03:44:56;;;;;;;;;4.25;4.25;;;;;;;;5029694;28;47370;-79
2021/12/31 03:47:21;;;;;;;;;5.00;4.00;;;;;;;;5029365;28;45641;-79
2021/12/31 03:49:46;;;;;;;;;3.00;3.00;;;;;;;;5028185;28;45682;-80
2021/12/31 03:52:12;;;;;;;;;5.00;5.00;;;;;;;;5025986;28;45527;-80
2021/12/31 03:54:37;;;;;;;;;4.00;2.25;;;;;;;;5025262;28;48448;-78
2021/12/31 03:57:02;;;;;;;;;4.00;3.00;;;;;;;;5023718;28;46959;-78
2021/12/31 03:59:28;;;;;;;;;4.25;3.00;;;;;;;;5028994;28;45566;-80
2021/12/31 04:01:53;;;;;;;;;4.00;4.00;;;;;;;;5027684;28;45403;-80
2021/12/31 04:04:18;;;;;;;;;5.00;4.00;;;;;;;;5029222;28;46358;-80
2021/12/31 04:06:43;;;;;;;;;6.33;4.00;;;;;;;;5029188;28;45530;-80
2021/12/31 04:09:08;;;;;;;;;4.33;3.67;;;;;;;;5032246;28;45666;-80
2021/12/31 04:11:34;;;;;;;;;4.00;3.67;;;;;;;;5025574;28;45473;-80
2021/12/31 04:13:59;;;;;;;;;3.00;3.00;;;;;;;;5028079;28;45585;-80
2021/12/31 04:16:24;;;;;;;;;4.00;4.00;;;;;;;;5026333;28;45521;-80
2021/12/31 04:18:49;;;;;;;;;6.00;5.00;;;;;;;;5028104;28;51072;-80
2021/12/31 04:21:16;;;;;;;;;5.33;2.33;;;;;;;;5031498;28;45367;-80
2021/12/31 04:26:36;;;;;;;;;4.00;4.00;;;;;;;;4987636;28;45599;-80
2021/12/31 04:29:01;;;;;;;;;7.00;4.00;;;;;;;;4985902;28;45712;-80
2021/12/31 04:31:27;;;;;;;;;3.67;3.67;;;;;;;;4987924;28;45848;-80
2021/12/31 04:33:52;;;;;;;;;3.67;3.33;;;;;;;;4986785;28;46765;-80
2021/12/31 04:36:17;;;;;;;;;3.25;3.25;;;;;;;;4989338;28;45420;-81
2021/12/31 04:38:43;;;;;;;;;5.00;4.00;;;;;;;;4989430;28;45608;-79
2021/12/31 04:41:08;;;;;;;;;5.00;5.00;;;;;;;;4970701;28;45522;-80
2021/12/31 04:43:33;;;;;;;;;4.33;3.00;;;;;;;;4980320;28;46702;-80
2021/12/31 04:45:58;;;;;;;;;5.00;4.00;;;;;;;;4987519;28;45837;-80
2021/12/31 04:48:23;;;;;;;;;4.67;4.00;;;;;;;;4988027;28;45503;-77
2021/12/31 04:50:49;;;;;;;;;5.67;4.33;;;;;;;;4988461;28;45479;-79
2021/12/31 04:53:14;;;;;;;;;4.75;4.75;;;;;;;;4986350;28;46275;-79
2021/12/31 04:55:39;;;;;;;;;7.00;5.33;;;;;;;;4987870;28;45554;-79
2021/12/31 04:58:04;;;;;;;;;5.00;5.00;;;;;;;;4986155;28;45554;-80
2021/12/31 05:00:29;;;;;;;;;3.67;3.00;;;;;;;;4988043;28;50077;-80
2021/12/31 05:02:55;;;;;;;;;4.00;4.00;;;;;;;;5003239;28;46069;-80
2021/12/31 05:05:20;;;;;;;;;6.00;6.00;;;;;;;;5021043;28;45431;-80
2021/12/31 05:07:45;;;;;;;;;5.67;5.00;;;;;;;;5025766;28;45509;-81
2021/12/31 05:10:10;;;;;;;;;5.00;5.00;;;;;;;;5043832;28;45504;-79
2021/12/31 05:12:38;;;;;;;;;4.75;4.75;;;;;;;;5031636;28;45365;-80
2021/12/31 05:15:07;;;;;;;;;6.50;5.25;;;;;;;;5031370;28;45430;-80
2021/12/31 05:17:32;;;;;;;;;5.75;5.00;;;;;;;;5063264;28;45712;-80
2021/12/31 05:19:57;;;;;;;;;4.00;4.00;;;;;;;;5029235;28;45446;-80
2021/12/31 05:22:22;;;;;;;;;5.00;4.00;;;;;;;;5030006;28;45613;-80
2021/12/31 05:24:47;;;;;;;;;7.00;5.00;;;;;;;;5044340;28;45685;-80
2021/12/31 05:27:13;;;;;;;;;3.33;3.33;;;;;;;;5035821;28;45574;-79
2021/12/31 05:29:38;;;;;;;;;6.00;4.33;;;;;;;;5028744;28;45704;-80
2021/12/31 05:32:03;;;;;;;;;7.33;5.00;;;;;;;;5029840;28;45637;-80
2021/12/31 05:34:29;;;;;;;;;8.75;5.00;;;;;;;;5031010;28;45625;-80
2021/12/31 05:36:54;;;;;;;;;5.75;5.75;;;;;;;;5031545;28;45641;-80
2021/12/31 05:39:19;;;;;;;;;4.67;4.67;;;;;;;;5032834;28;45476;-80
2021/12/31 05:41:44;;;;;;;;;5.67;5.00;;;;;;;;5033732;28;46522;-81
2021/12/31 05:44:10;;;;;;;;;7.00;5.00;;;;;;;;5031291;28;45622;-80
2021/12/31 05:46:35;;;;;;;;;5.67;5.00;;;;;;;;5031365;28;45759;-80
2021/12/31 05:49:00;;;;;;;;;5.00;4.50;;;;;;;;5032113;28;45499;-80
2021/12/31 05:51:27;;;;;;;;;4.00;4.00;;;;;;;;5032692;28;45587;-80
2021/12/31 05:53:52;;;;;;;;;7.00;5.50;;;;;;;;5030106;28;45952;-80
2021/12/31 05:56:18;;;;;;;;;4.00;3.67;;;;;;;;5028990;28;45665;-80
2021/12/31 05:58:43;;;;;;;;;5.00;5.00;;;;;;;;5032549;28;45442;-80
2021/12/31 06:01:08;;;;;;;;;6.50;6.00;;;;;;;;5031781;28;45547;-80
2021/12/31 06:03:33;;;;;;;;;3.00;1.00;;;;;;;;5030797;28;45409;-79
2021/12/31 06:05:59;;;;;;;;;7.00;6.00;;;;;;;;5033727;28;45566;-81
2021/12/31 06:08:24;;;;;;;;;7.00;5.00;;;;;;;;5029034;28;45778;-80
2021/12/31 06:10:49;;;;;;;;;5.33;4.00;;;;;;;;5029084;28;46583;-80
2021/12/31 06:13:14;;;;;;;;;6.33;4.00;;;;;;;;5031597;28;45498;-80
2021/12/31 06:15:43;;;;;;;;;6.67;5.00;;;;;;;;5031200;28;45794;-80
2021/12/31 06:18:09;;;;;;;;;4.00;4.00;;;;;;;;5032876;28;45534;-80
2021/12/31 06:20:36;;;;;;;;;4.75;4.75;;;;;;;;5029425;28;45909;-80
2021/12/31 06:23:01;;;;;;;;;5.00;4.00;;;;;;;;5028177;28;45522;-80
2021/12/31 06:25:26;;;;;;;;;5.75;5.75;;;;;;;;5029871;28;45325;-79
2021/12/31 06:27:52;;;;;;;;;7.25;6.00;;;;;;;;5030768;28;45543;-80
2021/12/31 06:30:17;;;;;;;;;7.00;7.00;;;;;;;;5031665;28;45577;-80
2021/12/31 06:32:42;;;;;;;;;6.75;3.75;;;;;;;;5030277;28;45612;-80
2021/12/31 06:35:08;;;;;;;;;5.00;5.00;;;;;;;;5030069;28;45412;-80
2021/12/31 06:37:33;;;;;;;;;6.25;5.00;;;;;;;;5030885;28;45558;-80
2021/12/31 06:40:03;;;;;;;;;5.00;5.00;;;;;;;;5031439;28;45586;-81
2021/12/31 06:42:28;;;;;;;;;8.50;6.00;;;;;;;;5031520;28;46125;-79
2021/12/31 06:44:54;;;;;;;;;8.33;5.33;;;;;;;;5032388;28;45553;-79
2021/12/31 06:47:19;;;;;;;;;4.00;4.00;;;;;;;;5025842;28;45597;-80
2021/12/31 06:49:44;;;;;;;;;6.00;5.00;;;;;;;;5027856;28;46035;-80
2021/12/31 06:52:09;;;;;;;;;6.00;5.00;;;;;;;;5028656;28;45962;-80
2021/12/31 06:54:36;;;;;;;;;5.67;5.67;;;;;;;;5029040;28;45545;-79
2021/12/31 06:57:01;;;;;;;;;5.50;5.50;;;;;;;;5032476;28;45521;-80
2021/12/31 06:59:27;;;;;;;;;11.00;7.33;;;;;;;;5029527;28;48733;-80
2021/12/31 07:01:52;;;;;;;;;6.00;5.00;;;;;;;;5029675;28;45769;-80
2021/12/31 07:04:17;;;;;;;;;7.75;5.25;;;;;;;;5030805;28;45502;-81
2021/12/31 07:06:43;;;;;;;;;7.00;5.33;;;;;;;;5030756;28;47014;-78
2021/12/31 07:09:11;;;;;;;;;8.67;6.00;;;;;;;;5028822;28;45702;-78
2021/12/31 07:11:36;;;;;;;;;10.00;6.25;;;;;;;;5026215;28;45708;-80
2021/12/31 07:14:01;;;;;;;;;7.50;6.00;;;;;;;;5027049;28;45634;-80
2021/12/31 07:16:27;;;;;;;;;6.00;6.00;;;;;;;;5029074;28;45602;-79
2021/12/31 07:18:52;;;;;;;;;6.00;4.33;;;;;;;;5042819;28;48127;-79
2021/12/31 07:21:17;;;;;;;;;5.50;5.50;;;;;;;;5031587;28;46060;-80
2021/12/31 07:23:42;;;;;;;;;7.33;6.00;;;;;;;;5028965;28;45530;-79
2021/12/31 07:26:08;;;;;;;;;7.67;6.00;;;;;;;;5029605;28;45659;-79
2021/12/31 07:28:33;;;;;;;;;9.00;5.50;;;;;;;;5028306;28;46184;-80
2021/12/31 07:30:59;;;;;;;;;7.00;5.00;;;;;;;;5029541;28;46029;-79
2021/12/31 07:33:25;;;;;;;;;6.75;6.75;;;;;;;;5031336;28;45524;-79
2021/12/31 07:35:51;;;;;;;;;7.00;5.75;;;;;;;;5027186;28;45646;-79
2021/12/31 07:38:23;;;;;;;;;7.75;6.00;;;;;;;;5028378;28;46175;-79
2021/12/31 07:40:48;;;;;;;;;6.00;5.50;;;;;;;;5025170;28;45982;-79
2021/12/31 07:43:14;;;;;;;;;6.00;6.00;;;;;;;;5029139;28;46074;-79
2021/12/31 07:45:39;;;;;;;;;5.75;5.75;;;;;;;;5022043;28;45472;-79
2021/12/31 07:48:05;;;;;;;;;6.25;4.00;;;;;;;;5032671;28;45596;-80
2021/12/31 07:50:31;;;;;;;;;3.25;3.25;;;;;;;;5025381;28;45568;-79
2021/12/31 07:52:56;;;;;;;;;9.00;7.00;;;;;;;;5027785;28;45484;-79
2021/12/31 07:55:22;;;;;;;;;8.00;7.67;;;;;;;;5029370;28;45606;-78
2021/12/31 07:57:47;;;;;;;;;6.25;4.50;;;;;;;;5026363;28;45505;-79
2021/12/31 08:00:13;;;;;;;;;6.67;6.67;;;;;;;;5026080;28;45471;-80
2021/12/31 08:02:38;;;;;;;;;5.00;5.00;;;;;;;;5028372;28;45585;-80
2021/12/31 08:05:03;;;;;;;;;5.33;5.33;;;;;;;;5022463;28;45839;-81
2021/12/31 08:07:29;;;;;;;;;6.00;4.00;;;;;;;;5020330;28;45984;-80
2021/12/31 08:09:54;;;;;;;;;8.00;7.00;;;;;;;;5014775;28;45365;-80
2021/12/31 08:12:19;;;;;;;;;8.00;5.67;;;;;;;;5029351;28;45364;-80
2021/12/31 08:14:44;;;;;;;;;8.33;5.00;;;;;;;;5026796;28;45656;-80
2021/12/31 08:17:10;;;;;;;;;8.00;6.00;;;;;;;;5025711;28;48147;-79
2021/12/31 08:19:35;;;;;;;;;10.00;7.00;;;;;;;;5028783;28;45529;-80
2021/12/31 08:22:09;;;;;;;;;7.00;5.00;;;;;;;;5030759;28;45525;-80
2021/12/31 08:24:35;;;;;;;;;5.75;5.75;;;;;;;;5028424;28;45454;-80
2021/12/31 08:27:00;;;;;;;;;7.50;6.00;;;;;;;;5028232;28;45660;-80
2021/12/31 08:29:25;;;;;;;;;6.25;6.25;;;;;;;;5019094;28;45606;-79
2021/12/31 08:31:51;;;;;;;;;9.00;6.00;;;;;;;;5025888;28;45649;-79
2021/12/31 08:34:16;;;;;;;;;6.33;5.00;;;;;;;;5018905;28;45700;-80
2021/12/31 08:36:41;;;;;;;;;8.33;5.67;;;;;;;;5021407;28;46344;-80
2021/12/31 08:39:07;;;;;;;;;8.00;6.00;;;;;;;;5030153;28;45561;-80
2021/12/31 08:41:33;;;;;;;;;7.00;5.50;;;;;;;;5024605;28;45514;-80
2021/12/31 08:43:58;;;;;;;;;7.50;7.00;;;;;;;;5033931;28;45618;-80
2021/12/31 08:46:23;;;;;;;;;8.00;4.33;;;;;;;;5031582;28;47261;-80
2021/12/31 08:48:49;;;;;;;;;5.00;5.00;;;;;;;;5017098;28;46220;-80
2021/12/31 08:51:14;;;;;;;;;8.00;5.50;;;;;;;;5032595;28;45569;-80
2021/12/31 08:53:40;;;;;;;;;5.00;4.67;;;;;;;;5026600;28;45541;-80
2021/12/31 08:56:05;;;;;;;;;5.00;5.00;;;;;;;;5026682;28;46105;-80
2021/12/31 08:58:30;;;;;;;;;5.00;5.00;;;;;;;;5024830;28;45634;-80
2021/12/31 09:00:56;;;;;;;;;4.00;4.00;;;;;;;;5016436;28;45579;-80
2021/12/31 09:03:21;;;;;;;;;11.00;7.00;;;;;;;;5031156;28;45360;-80
2021/12/31 09:05:46;;;;;;;;;6.33;5.67;;;;;;;;5031536;28;46610;-80
2021/12/31 09:08:11;;;;;;;;;7.00;5.75;;;;;;;;5027425;28;45502;-80
2021/12/31 09:10:36;;;;;;;;;7.00;5.00;;;;;;;;5025313;28;45443;-80
2021/12/31 09:13:02;;;;;;;;;4.50;4.50;;;;;;;;5026683;28;45494;-80
2021/12/31 09:15:27;;;;;;;;;7.75;6.00;;;;;;;;5026659;28;48050;-80
2021/12/31 09:17:55;;;;;;;;;5.00;5.00;;;;;;;;5031133;28;45375;-79
2021/12/31 09:20:20;;;;;;;;;6.25;6.25;;;;;;;;5026960;28;45553;-80
2021/12/31 09:22:45;;;;;;;;;6.00;5.67;;;;;;;;5025651;28;45632;-81
2021/12/31 09:25:11;;;;;;;;;6.75;5.50;;;;;;;;5028945;28;45491;-80
2021/12/31 09:27:36;;;;;;;;;5.00;5.00;;;;;;;;5027603;28;46256;-77
2021/12/31 09:30:01;;;;;;;;;7.00;7.00;;;;;;;;5029939;28;45473;-78
2021/12/31 09:32:27;;;;;;;;;4.25;4.25;;;;;;;;5020169;28;45502;-80
2021/12/31 09:34:52;;;;;;;;;6.67;5.33;;;;;;;;5016314;28;45635;-78
2021/12/31 09:37:18;;;;;;;;;5.00;5.00;;;;;;;;5041198;28;46236;-77
2021/12/31 09:39:44;;;;;;;;;5.50;5.50;;;;;;;;5028254;28;45462;-81
2021/12/31 09:42:09;;;;;;;;;6.75;5.00;;;;;;;;5029435;28;45505;-79
2021/12/31 09:44:35;;;;;;;;;6.00;6.00;;;;;;;;5017008;28;46549;-80
2021/12/31 09:47:02;;;;;;;;;6.50;5.50;;;;;;;;5017358;28;45706;-80
2021/12/31 09:49:28;;;;;;;;;6.25;5.00;;;;;;;;5016792;28;45348;-78
2021/12/31 09:51:53;;;;;;;;;5.00;5.00;;;;;;;;5028792;28;45641;-79
2021/12/31 09:54:22;;;;;;;;;5.50;5.50;;;;;;;;5015557;28;46026;-79
2021/12/31 09:56:47;;;;;;;;;5.00;5.00;;;;;;;;5020811;28;45482;-79
2021/12/31 09:59:13;;;;;;;;;5.25;5.25;;;;;;;;5022875;28;45719;-79
2021/12/31 10:01:47;;;;;;;;;4.33;4.33;;;;;;;;5030162;28;46337;-79
2021/12/31 10:04:13;;;;;;;;;6.75;6.00;;;;;;;;5031082;28;47723;-78
2021/12/31 10:06:38;;;;;;;;;6.25;5.00;;;;;;;;5018467;28;45340;-80
2021/12/31 10:09:04;;;;;;;;;6.25;4.00;;;;;;;;5018674;28;45473;-80
2021/12/31 10:11:29;;;;;;;;;6.00;5.33;;;;;;;;5020040;28;45613;-78
2021/12/31 10:13:55;;;;;;;;;6.00;5.25;;;;;;;;5019327;28;45488;-79
2021/12/31 10:16:24;;;;;;;;;5.50;5.50;;;;;;;;5028095;28;45439;-80
2021/12/31 10:19:02;;;;;;;;;8.25;5.00;;;;;;;;5030437;28;45580;-79
2021/12/31 10:21:33;;;;;;;;;5.25;5.25;;;;;;;;5030894;28;45413;-79
2021/12/31 10:23:59;;;;;;;;;4.25;4.25;;;;;;;;5018886;28;45339;-78
2021/12/31 10:26:30;;;;;;;;;5.33;4.00;;;;;;;;5029919;28;45442;-80
2021/12/31 10:28:59;;;;;;;;;5.00;5.00;;;;;;;;5024346;28;45580;-80
2021/12/31 10:31:24;;;;;;;;;7.75;7.75;;;;;;;;5028828;28;45533;-81
2021/12/31 10:33:50;;;;;;;;;5.00;5.00;;;;;;;;5022385;28;45950;-80
2021/12/31 10:36:32;;;;;;;;;6.00;6.00;;;;;;;;5032895;28;45953;-80
2021/12/31 10:39:14;;;;;;;;;9.00;6.75;;;;;;;;5031684;28;45518;-80
2021/12/31 10:41:39;;;;;;;;;5.50;5.50;;;;;;;;5029508;28;45729;-82
2021/12/31 10:44:04;;;;;;;;;17.33;14.33;;;;;;;;5029595;28;45655;-80
2021/12/31 10:46:29;;;;;;;;;14.33;12.00;;;;;;;;5028796;28;45613;-79
2021/12/31 10:48:55;;;;;;;;;20.00;17.67;;;;;;;;5029881;28;45672;-79
2021/12/31 10:51:40;;;;;;;;;21.25;17.50;;;;;;;;5031884;28;45442;-80
2021/12/31 10:54:29;;;;;;;;;18.75;17.00;;;;;;;;5031295;28;48157;-78
2021/12/31 10:56:57;;;;;;;;;12.75;11.50;;;;;;;;5027480;28;45645;-80
2021/12/31 10:59:23;;;;;;;;;18.00;14.25;;;;;;;;5027675;28;45539;-80
2021/12/31 11:01:49;;;;;;;;;16.75;14.75;;;;;;;;5021808;28;45532;-79
2021/12/31 11:04:14;;;;;;;;;16.00;14.00;;;;;;;;5029131;28;46239;-80
2021/12/31 11:06:44;;;;;;;;;12.75;11.00;;;;;;;;5023896;28;45501;-79
2021/12/31 11:09:12;;;;;;;;;12.25;12.00;;;;;;;;5019929;28;45460;-79
2021/12/31 11:11:38;;;;;;;;;9.75;6.50;;;;;;;;5019161;28;45521;-79
2021/12/31 11:14:03;;;;;;;;;6.75;6.00;;;;;;;;5019242;28;45990;-80
2021/12/31 11:16:28;;;;;;;;;6.25;6.25;;;;;;;;5026686;28;45582;-79
2021/12/31 11:18:55;;;;;;;;;6.00;4.75;;;;;;;;5029606;28;45525;-80
2021/12/31 11:21:20;;;;;;;;;4.50;2.25;;;;;;;;5020390;28;52140;-79
2021/12/31 11:23:45;;;;;;;;;4.25;3.00;;;;;;;;5030017;28;48437;-80
2021/12/31 11:26:11;;;;;;;;;3.00;3.00;;;;;;;;5028271;28;45505;-78
2021/12/31 11:28:38;;;;;;;;;5.00;3.75;;;;;;;;5029107;28;46359;-78
2021/12/31 11:31:16;;;;;;;;;1.50;1.50;;;;;;;;5027536;28;45510;-78
2021/12/31 11:33:41;;;;;;;;;3.00;3.00;;;;;;;;5029660;28;46269;-79
2021/12/31 11:36:08;;;;;;;;;3.00;3.00;;;;;;;;5032990;28;45653;-79
2021/12/31 11:38:34;;;;;;;;;3.00;3.00;;;;;;;;5029766;28;45520;-79
2021/12/31 11:41:07;;;;;;;;;3.00;3.00;;;;;;;;5028844;28;45822;-79
2021/12/31 11:43:33;;;;;;;;;3.25;3.25;;;;;;;;5027255;28;46199;-79
2021/12/31 11:46:19;;;;;;;;;4.00;4.00;;;;;;;;5030103;28;45416;-79
2021/12/31 11:48:51;;;;;;;;;3.00;2.50;;;;;;;;5029560;28;45477;-79
2021/12/31 11:51:19;;;;;;;;;9.00;7.25;;;;;;;;5029765;28;45811;-79
2021/12/31 11:53:57;;;;;;;;;13.25;10.00;;;;;;;;5029112;28;47820;-79
2021/12/31 11:56:43;;;;;;;;;9.00;9.00;;;;;;;;5028401;28;45710;-78
2021/12/31 11:59:10;;;;;;;;;8.25;8.25;;;;;;;;5022018;28;46093;-81
2021/12/31 12:01:35;;;;;;;;;7.00;7.00;;;;;;;;5024399;28;45529;-79
2021/12/31 12:04:19;;;;;;;;;7.67;5.00;;;;;;;;5029428;28;46421;-80
2021/12/31 12:06:55;;;;;;;;;5.00;5.00;;;;;;;;5024785;28;45478;-81
2021/12/31 12:09:21;;;;;;;;;4.75;4.00;;;;;;;;5030646;28;45663;-81
2021/12/31 12:12:04;;;;;;;;;4.00;4.00;;;;;;;;5030283;28;45638;-82
2021/12/31 12:14:31;;;;;;;;;3.50;2.75;;;;;;;;5024720;28;45650;-81
2021/12/31 12:16:57;;;;;;;;;4.00;4.00;;;;;;;;5027434;28;46144;-69
2021/12/31 12:19:22;;;;;;;;;4.00;4.00;;;;;;;;5017437;28;45518;-69
2021/12/31 12:21:51;;;;;;;;;7.75;4.75;;;;;;;;5027940;28;45418;-67
2021/12/31 12:24:22;;;;;;;;;3.00;3.00;;;;;;;;5027906;28;45363;-67
2021/12/31 12:26:48;;;;;;;;;3.00;3.00;;;;;;;;5029683;28;49657;-67
2021/12/31 12:29:23;;;;;;;;;3.00;3.00;;;;;;;;5027617;28;45383;-66
2021/12/31 12:32:05;;;;;;;;;5.75;4.00;;;;;;;;5026359;28;45847;-66
2021/12/31 12:34:30;;;;;;;;;5.00;3.00;;;;;;;;5028744;28;45797;-67
2021/12/31 12:36:56;;;;;;;;;5.67;4.67;;;;;;;;5027328;28;45776;-67
2021/12/31 12:39:21;;;;;;;;;5.33;4.67;;;;;;;;5029645;28;45935;-66
2021/12/31 12:41:50;;;;;;;;;4.00;4.00;;;;;;;;5017788;28;45506;-66
2021/12/31 12:44:16;;;;;;;;;4.25;4.25;;;;;;;;5021469;28;47018;-66
2021/12/31 12:46:58;;;;;;;;;5.00;5.00;;;;;;;;5025247;28;45532;-67
2021/12/31 12:49:26;;;;;;;;;8.50;8.00;;;;;;;;5025864;28;45879;-67
2021/12/31 12:51:52;;;;;;;;;6.75;4.75;;;;;;;;5028383;28;45458;-68
2021/12/31 12:54:22;;;;;;;;;5.25;5.25;;;;;;;;5015637;28;45489;-67
2021/12/31 12:56:48;;;;;;;;;10.00;6.50;;;;;;;;5017812;28;46359;-67
2021/12/31 12:59:20;;;;;;;;;5.75;4.50;;;;;;;;5025385;28;45480;-67
2021/12/31 13:01:46;;;;;;;;;3.00;3.00;;;;;;;;5023869;28;45467;-67
2021/12/31 13:04:12;;;;;;;;;3.50;3.00;;;;;;;;5015786;28;47340;-67
2021/12/31 13:06:39;;;;;;;;;3.75;3.75;;;;;;;;5029291;28;45415;-67
2021/12/31 13:09:16;;;;;;;;;6.00;4.00;;;;;;;;5029369;28;45512;-67
2021/12/31 13:11:45;;;;;;;;;3.75;3.75;;;;;;;;5025113;28;45419;-67
2021/12/31 13:14:12;;;;;;;;;4.00;4.00;;;;;;;;5023124;28;46575;-67
2021/12/31 13:16:38;;;;;;;;;7.75;5.75;;;;;;;;5025401;28;45863;-66
2021/12/31 13:19:07;;;;;;;;;6.00;6.00;;;;;;;;5025331;28;45569;-67
2021/12/31 13:21:34;;;;;;;;;7.25;7.25;;;;;;;;5013421;28;45650;-66
2021/12/31 13:23:59;;;;;;;;;8.25;6.00;;;;;;;;5027843;28;46934;-66
2021/12/31 13:26:25;;;;;;;;;8.00;8.00;;;;;;;;5018529;28;45487;-68
2021/12/31 13:28:54;;;;;;;;;6.25;6.25;;;;;;;;5023242;28;45719;-68
2021/12/31 13:31:30;;;;;;;;;5.75;5.75;;;;;;;;5027950;28;45550;-68
2021/12/31 13:33:55;;;;;;;;;5.00;5.00;;;;;;;;5016790;28;46338;-68
2021/12/31 13:36:22;;;;;;;;;4.00;4.00;;;;;;;;5018624;28;46552;-68
2021/12/31 13:38:56;;;;;;;;;5.00;5.00;;;;;;;;5032763;28;45543;-66
2021/12/31 13:41:22;;;;;;;;;6.00;4.00;;;;;;;;5022695;28;45535;-69
2021/12/31 13:43:53;;;;;;;;;5.25;3.25;;;;;;;;5019913;28;45431;-69
2021/12/31 13:46:18;;;;;;;;;7.00;4.00;;;;;;;;5019366;28;45708;-68
2021/12/31 13:48:44;;;;;;;;;3.75;3.75;;;;;;;;5024841;28;45541;-72
2021/12/31 13:51:28;;;;;;;;;4.75;3.25;;;;;;;;5030294;28;45566;-69
2021/12/31 13:53:53;;;;;;;;;3.50;2.75;;;;;;;;5028300;28;48173;-69
2021/12/31 13:56:18;;;;;;;;;3.67;3.33;;;;;;;;5019523;28;45801;-69
2021/12/31 13:58:43;;;;;;;;;5.67;3.00;;;;;;;;5020481;28;45361;-68
2021/12/31 14:01:12;;;;;;;;;2.33;2.33;;;;;;;;5026900;28;45538;-68
2021/12/31 14:03:37;;;;;;;;;4.00;4.00;;;;;;;;5029624;28;45372;-69
2021/12/31 14:06:04;;;;;;;;;7.67;3.00;;;;;;;;5025242;28;45352;-68
2021/12/31 14:08:50;;;;;;;;;3.50;3.50;;;;;;;;5030118;28;45408;-68
2021/12/31 14:11:15;;;;;;;;;3.00;3.00;;;;;;;;5023010;28;45575;-69
2021/12/31 14:13:42;;;;;;;;;3.67;3.67;;;;;;;;5029655;28;45847;-70
2021/12/31 14:16:11;;;;;;;;;3.00;3.00;;;;;;;;5030384;28;45485;-68
2021/12/31 14:18:36;;;;;;;;;2.00;2.00;;;;;;;;5028067;28;45802;-68
2021/12/31 14:21:01;;;;;;;;;5.00;4.00;;;;;;;;5033075;28;45872;-68
2021/12/31 14:23:26;;;;;;;;;4.00;3.67;;;;;;;;5022306;28;45601;-67
2021/12/31 14:25:53;;;;;;;;;3.00;3.00;;;;;;;;5029876;28;45493;-67
2021/12/31 14:28:18;;;;;;;;;4.75;3.00;;;;;;;;5030623;28;45358;-69
2021/12/31 14:30:43;;;;;;;;;4.00;4.00;;;;;;;;5019467;28;45562;-68
2021/12/31 14:33:09;;;;;;;;;5.00;3.75;;;;;;;;5030836;28;46295;-66
2021/12/31 14:35:38;;;;;;;;;6.75;4.75;;;;;;;;5027330;28;45375;-67
2021/12/31 14:38:08;;;;;;;;;4.75;3.50;;;;;;;;5028310;28;45513;-68
2021/12/31 14:40:36;;;;;;;;;4.25;4.00;;;;;;;;5029147;28;45352;-67
2021/12/31 14:43:01;;;;;;;;;4.75;3.00;;;;;;;;5029284;28;46119;-66
2021/12/31 14:45:26;;;;;;;;;3.50;3.00;;;;;;;;5031868;28;45473;-67